Accueil
METAR-TAF:

METAR-TAF

Aéroports :

Aéroport Le Mans-Arnage

Le Mans, France

latitude: 47-56N, longitude: 000-12E, altitude: 59 m

Observation

Le bulletin a été fait il y a 31 minutes, à 02:30 UTC
Vent 3 kt de nord-ouest, variant entre ouest et nord
Température 15°C
Humidité 94%
Pression 1018 hPa
Visibilité 10 km ou plus
Ciel couvert à une hauteur de 3500 ft

METAR: LFRM 170230Z AUTO 31003KT 260V010 9999 OVC035 15/14 Q1018

Heure: 05:01 (03:01 UTC)

Prévision

Le bulletin a été fait il y a 10 heures et 1 minutes, à 17:00 UTC
Prévision valable du 16 à 18 UTC au 17 à 18 UTC
Vent 9 kt de nord-ouest
Visibilité 10 km ou plus
pas de nuages en-dessous de 1500 mètres et pas de cumulonimbus.
Temporairement
du 16 à 23 UTC au 17 à 03 UTC
Visibilité: 4000 m
Nuages fragmentés à une hauteur de 1200 ft
pluie faible

TAF: LFRM 161700Z 1618/1718 31009KT CAVOK TEMPO 1623/1703 4000 -RA BKN012

Observations et prévisions météorologiques de plus de 4000 aéroports (messages METAR et TAF).

Les stations disponibles sont représentées par des disques jaunes et rouges sur la carte.

Passer la souris dessus pour voir le nom de la station.

Cliquer dessus pour voir les observations et prévisions météorologiques.

Pour changer de carte: cliquez sur les boutons verts avec une croix noire pour zoomer, sur le bouton vert avec un tiret pour effectuer un zoom arrière, ou sur les flèches vertes pour les cartes adjacentes.


METAR-TAF: